Ninde, Virginia
Current Conditions -  °F | °C
As of 2:56 AM on Friday 28 Nov 2014 (Local Time) from KNYG Reporting Station
Clear Clear  
Wind Chill: -3°   Ceiling: Unl
Heat Index:   Visibility: 10mi
Dew Point: -6°   Wind: 7mph
Humidity: 61%   Direction: 320°NW
Pressure: 30.24"   Gusts: NA
Location:  38.27°N, 77.06°W
Report Text: KNYG 280756Z AUTO 32006KT 10SM CLR 01/M06 A3024 RMK AO2 SLP242 T00061061 FZRANO $
Loading
Personal Weather Stations






























Interactive Weather Map New forecast layout! Learn more

10-Day Weather Forecast

Advertisements
Track Severe Weather on mobile